Huvudsida
METAR-TAF:

METAR-TAF

Flygplatser :

Pärnu flygplats

Pärnu, Estland

latitud: 58-25-09N, longitud: 024-28-22E, höjd: 14 m

Aktuellt väderrapport

Denna rapport gjordes för 2 timmar och 2 minuter sedan, klockan 12:50 UTC
Vind 6 kt från syd/sydväst, varierande mellan syd och väst
Temperatur 20°C
Fuktighet 21%
Tryck 1029 hPa
Sikt 10 km eller mer
Inga moln under 1 500 m eller inga cumulonimbus

METAR: EEPU 231250Z 21006KT 180V260 CAVOK 20/M03 Q1029

Tid: 17:52 (14:52 UTC)


TAF: saknas

Aktuella väderrapporter och prognoser från 4000 flygplatser (METAR- och TAF-rapporter).

De tillgängliga stationerna syns som gula och röda prickar på kartan.

För musen över prickarna för att se namnen på stationerna.

Klicka sedan för att få väderrapporter och prognoser.

För att ändra kartan: Klicka på de gröna knapparna med ett svart kors på för att zooma in; den gröna knappen med ett streck på för att zooma ut; eller på de gröna pilarna för angränsande kartor.


METAR-TAF: